createdAt,value
2022-09-10T05:06:57.899Z,5.63
2022-09-10T05:07:57.928Z,5.63
2022-09-10T16:03:35.099Z,84.38
2022-09-10T16:04:36.704Z,84.38
2022-09-10T16:05:35.179Z,78.75
2022-09-10T16:06:35.246Z,67.50
2022-09-10T16:07:35.282Z,67.50
2022-09-10T16:08:35.354Z,56.25
2022-09-10T16:09:35.376Z,56.25
2022-09-10T16:10:35.432Z,56.25
2022-09-10T16:11:53.957Z,61.88
2022-09-10T16:12:35.529Z,67.50
2022-09-10T16:13:35.612Z,73.13
2022-09-10T16:14:35.898Z,73.13
2022-09-10T16:15:36.645Z,84.38
2022-09-10T16:16:35.735Z,101.25
2022-09-10T16:17:35.813Z,112.50
2022-09-10T16:18:35.858Z,129.38
2022-09-10T16:19:35.949Z,135.00
2022-09-10T16:20:36.049Z,146.25
2022-09-10T16:21:35.993Z,151.88
2022-09-10T16:22:36.079Z,151.88
2022-09-10T16:23:36.127Z,146.25
2022-09-10T16:24:36.150Z,129.38
2022-09-10T16:25:36.200Z,118.13
2022-09-10T16:26:36.250Z,106.88
2022-09-10T16:27:37.333Z,95.63
2022-09-10T16:28:36.360Z,90.00
2022-09-10T16:29:36.435Z,84.38
2022-09-10T16:30:36.452Z,84.38
2022-09-10T16:31:36.530Z,84.38
2022-09-10T16:32:36.555Z,84.38
2022-09-10T16:33:36.617Z,84.38
2022-09-10T16:34:36.688Z,78.75
2022-09-10T16:35:36.735Z,73.13
2022-09-10T16:36:36.769Z,67.50
2022-09-10T16:37:36.845Z,67.50
2022-09-10T16:38:44.434Z,67.50
2022-09-10T16:39:41.606Z,67.50
2022-09-10T16:40:36.960Z,67.50
2022-09-10T16:41:37.047Z,67.50
2022-09-10T16:42:37.262Z,67.50
2022-09-10T16:43:37.117Z,67.50
2022-09-10T16:44:37.193Z,61.88
2022-09-10T16:45:37.214Z,61.88
2022-09-10T16:46:37.320Z,61.88
2022-09-10T16:47:41.698Z,61.88
2022-09-10T16:48:39.191Z,61.88
2022-09-10T16:49:37.452Z,61.88
2022-09-10T16:50:37.470Z,61.88
2022-09-10T16:51:37.580Z,61.88
2022-09-10T16:52:37.603Z,61.88
2022-09-10T16:53:37.619Z,61.88
2022-09-10T16:54:37.721Z,56.25
2022-09-10T16:55:38.674Z,50.63
2022-09-10T16:56:37.783Z,45.00
2022-09-10T16:57:38.640Z,45.00
2022-09-10T16:58:38.162Z,45.00
2022-09-10T16:59:37.950Z,39.38
2022-09-10T17:00:37.975Z,39.38
2022-09-10T17:01:38.455Z,39.38
2022-09-10T17:02:38.100Z,39.38
2022-09-10T17:03:38.121Z,39.38
2022-09-10T17:04:38.171Z,39.38
2022-09-10T17:05:40.167Z,39.38
2022-09-10T17:06:38.286Z,39.38
2022-09-10T17:07:38.396Z,45.00
2022-09-10T17:08:38.478Z,39.38
2022-09-10T17:09:38.430Z,39.38
2022-09-10T17:10:38.555Z,39.38
2022-09-10T17:11:38.526Z,33.75
2022-09-10T17:12:38.578Z,28.13
2022-09-10T17:13:41.164Z,28.13
2022-09-10T17:14:38.694Z,22.50
2022-09-10T17:15:38.801Z,22.50
2022-09-10T17:16:38.787Z,16.88
2022-09-10T17:17:38.833Z,16.88
2022-09-10T17:18:38.954Z,16.88
2022-09-10T17:19:38.981Z,16.88
2022-09-10T17:20:39.040Z,11.25
2022-09-10T17:21:39.700Z,11.25
2022-09-10T17:22:39.081Z,11.25
2022-09-10T17:23:39.133Z,11.25
2022-09-10T17:24:39.192Z,11.25
2022-09-10T17:25:40.596Z,11.25
2022-09-10T17:26:39.298Z,5.63
2022-09-10T17:27:39.369Z,5.63
2022-09-10T17:28:39.452Z,5.63
2022-09-10T17:29:39.535Z,5.63
2022-09-10T17:30:39.482Z,5.63
2022-09-10T17:31:39.543Z,5.63
2022-09-10T17:32:39.623Z,5.63
2022-09-10T17:33:39.647Z,5.63
2022-09-10T17:34:39.682Z,0.00
2022-09-10T17:35:39.733Z,0.00
2022-09-10T17:36:39.783Z,0.00
2022-09-10T17:37:39.866Z,0.00
2022-09-10T17:38:39.892Z,0.00
2022-09-10T17:39:39.988Z,0.00
2022-09-10T17:40:40.018Z,0.00
2022-09-10T17:41:40.041Z,0.00
2022-09-10T17:42:40.111Z,0.00
2022-09-10T17:43:40.390Z,0.00
2022-09-10T17:44:40.198Z,0.00
2022-09-10T17:45:40.243Z,0.00
2022-09-10T17:46:40.335Z,0.00
2022-09-10T17:47:40.394Z,0.00
2022-09-10T17:48:40.638Z,0.00
2022-09-10T17:49:40.503Z,0.00
2022-09-10T17:50:40.501Z,0.00
2022-09-10T17:51:40.579Z,0.00
2022-09-10T17:52:40.612Z,0.00
2022-09-10T17:53:40.658Z,0.00
2022-09-10T17:54:42.844Z,0.00
2022-09-10T17:55:40.737Z,0.00
2022-09-10T17:56:40.791Z,0.00
2022-09-10T17:57:40.866Z,0.00
2022-09-10T17:58:41.040Z,0.00
2022-09-10T17:59:40.937Z,0.00
2022-09-10T18:00:41.020Z,0.00
2022-09-10T18:01:41.122Z,0.00
2022-09-10T18:02:41.159Z,0.00
2022-09-10T18:03:41.260Z,0.00
2022-09-10T18:04:41.203Z,0.00
2022-09-10T18:05:41.276Z,0.00
2022-09-10T18:06:41.301Z,0.00
2022-09-10T18:07:41.352Z,0.00
2022-09-10T18:08:41.394Z,0.00
2022-09-10T18:09:41.447Z,0.00
2022-09-10T18:10:41.519Z,0.00
2022-09-10T18:11:41.561Z,0.00
2022-09-10T18:12:41.592Z,0.00
2022-09-10T18:13:41.728Z,0.00
2022-09-10T18:14:41.759Z,0.00
2022-09-10T18:15:41.825Z,0.00
2022-09-10T18:16:43.688Z,0.00
2022-09-10T18:17:41.855Z,0.00
2022-09-10T18:18:42.257Z,0.00
2022-09-10T18:19:41.939Z,0.00
2022-09-10T18:20:41.990Z,0.00
2022-09-10T18:21:43.804Z,0.00
2022-09-10T18:22:42.100Z,0.00
2022-09-10T18:23:42.207Z,0.00
2022-09-10T18:24:42.361Z,0.00
2022-09-10T18:25:43.880Z,0.00
2022-09-10T18:26:42.334Z,0.00
2022-09-10T18:27:45.661Z,0.00
2022-09-10T18:28:42.434Z,0.00
2022-09-10T18:29:42.447Z,0.00
2022-09-10T18:30:42.516Z,0.00
2022-09-10T18:31:42.624Z,0.00
2022-09-10T18:32:43.401Z,0.00
2022-09-10T18:33:42.650Z,0.00
2022-09-10T18:34:42.699Z,0.00
2022-09-10T18:35:42.769Z,0.00
2022-09-10T18:36:42.934Z,0.00
2022-09-10T18:37:42.839Z,0.00
2022-09-10T18:38:42.890Z,0.00
2022-09-10T18:39:43.012Z,0.00
2022-09-10T18:40:42.996Z,0.00
2022-09-10T18:41:43.097Z,0.00
2022-09-10T18:42:46.658Z,0.00
2022-09-10T18:43:43.166Z,0.00
2022-09-10T18:44:43.205Z,0.00
2022-09-10T18:45:43.243Z,0.00
2022-09-10T18:46:43.392Z,0.00
2022-09-10T18:47:45.368Z,0.00
2022-09-10T18:48:43.409Z,0.00
2022-09-10T18:49:43.441Z,0.00
2022-09-10T18:50:43.537Z,0.00
2022-09-10T18:51:43.544Z,0.00
2022-09-10T18:52:45.603Z,0.00
2022-09-10T18:53:43.707Z,0.00
2022-09-10T18:54:46.466Z,0.00
2022-09-10T18:55:43.762Z,0.00
2022-09-10T18:56:45.745Z,0.00
2022-09-10T18:57:43.847Z,0.00
2022-09-10T18:58:43.925Z,0.00
2022-09-10T18:59:43.966Z,0.00
2022-09-10T19:00:44.063Z,0.00
2022-09-10T19:01:44.740Z,0.00
2022-09-10T19:05:07.337Z,0.00
2022-09-10T19:05:43.301Z,0.00
2022-09-10T19:06:43.308Z,0.00
2022-09-10T19:08:01.386Z,0.00
2022-09-10T19:08:43.450Z,0.00
2022-09-10T19:09:43.495Z,0.00
2022-09-10T19:10:43.505Z,0.00
2022-09-10T19:12:06.406Z,0.00
2022-09-10T19:12:43.604Z,0.00
2022-09-10T19:13:43.660Z,0.00
2022-09-10T19:14:43.760Z,0.00
2022-09-10T19:15:43.779Z,0.00
2022-09-10T19:16:43.840Z,0.00
2022-09-10T19:17:49.179Z,0.00
2022-09-10T19:18:44.856Z,0.00
2022-09-10T19:19:45.856Z,0.00
2022-09-10T19:20:44.012Z,0.00
2022-09-10T19:21:44.080Z,0.00
2022-09-10T19:22:44.100Z,0.00
2022-09-10T19:23:44.159Z,0.00
2022-09-10T19:24:54.488Z,0.00
2022-09-10T19:26:05.329Z,0.00
2022-09-10T19:26:44.325Z,0.00
2022-09-10T19:27:44.349Z,0.00
2022-09-10T19:28:44.414Z,0.00
2022-09-10T19:29:44.462Z,0.00
2022-09-10T19:30:44.617Z,0.00
2022-09-10T19:31:44.646Z,0.00
2022-09-10T19:32:44.671Z,0.00
2022-09-10T19:33:44.667Z,0.00
2022-09-10T19:34:44.710Z,0.00
2022-09-10T19:35:44.752Z,0.00
2022-09-10T19:36:44.827Z,0.00
2022-09-10T19:37:44.890Z,0.00
2022-09-10T19:38:44.903Z,0.00
2022-09-10T19:39:45.017Z,0.00
2022-09-10T19:40:45.003Z,0.00
2022-09-10T19:41:45.057Z,0.00
2022-09-10T19:42:45.898Z,0.00
2022-09-10T19:46:36.422Z,0.00
2022-09-10T19:47:44.684Z,0.00
2022-09-10T19:48:36.465Z,0.00
2022-09-10T19:49:36.473Z,0.00
2022-09-10T19:50:36.538Z,0.00
2022-09-10T19:51:36.636Z,0.00
2022-09-10T19:52:47.865Z,0.00
2022-09-10T19:53:36.660Z,0.00
2022-09-10T19:54:36.710Z,0.00
2022-09-10T19:55:36.782Z,0.00
2022-09-10T19:56:37.699Z,0.00
2022-09-10T19:57:36.866Z,0.00
2022-09-10T20:02:36.483Z,0.00
2022-09-10T20:03:36.466Z,0.00
2022-09-10T20:04:36.505Z,0.00
2022-09-10T20:05:36.564Z,0.00
2022-09-10T20:06:36.599Z,0.00
2022-09-10T20:07:36.685Z,0.00
2022-09-10T20:08:36.713Z,0.00
2022-09-10T20:09:39.805Z,0.00
2022-09-10T20:10:36.799Z,0.00
2022-09-10T20:11:37.750Z,0.00
2022-09-10T20:12:36.949Z,0.00
2022-09-10T20:13:36.952Z,0.00
2022-09-10T20:14:37.014Z,0.00
2022-09-10T20:15:37.119Z,0.00
2022-09-10T20:16:37.104Z,0.00
2022-09-10T20:17:37.158Z,0.00
2022-09-10T20:18:37.257Z,0.00
2022-09-10T20:19:37.249Z,0.00
2022-09-10T20:20:37.324Z,0.00
2022-09-10T20:21:37.344Z,0.00
2022-09-10T20:22:38.793Z,0.00
2022-09-10T20:23:37.480Z,0.00
2022-09-10T20:24:38.119Z,0.00
2022-09-10T20:25:37.550Z,0.00
2022-09-10T20:26:42.190Z,0.00
2022-09-10T20:27:37.652Z,0.00
2022-09-10T20:28:37.786Z,0.00
2022-09-10T20:29:37.745Z,0.00
2022-09-10T20:30:37.869Z,0.00
2022-09-10T20:31:37.871Z,0.00
2022-09-10T20:32:37.929Z,0.00
2022-09-10T20:33:37.955Z,0.00
2022-09-10T20:34:37.996Z,0.00
2022-09-10T20:35:43.828Z,0.00
2022-09-10T20:36:38.127Z,0.00
2022-09-10T20:37:38.147Z,0.00
2022-09-10T20:38:38.231Z,0.00
2022-09-10T20:39:38.316Z,0.00
2022-09-10T20:40:38.316Z,0.00
2022-09-10T20:41:38.345Z,0.00
2022-09-10T20:42:38.397Z,0.00
2022-09-10T20:43:38.452Z,0.00
2022-09-10T20:44:38.524Z,0.00
2022-09-10T20:45:39.339Z,0.00
2022-09-10T20:46:38.679Z,0.00
2022-09-10T20:47:38.648Z,0.00
2022-09-10T20:48:39.801Z,0.00
2022-09-10T20:49:40.895Z,0.00
2022-09-10T20:50:38.791Z,0.00
2022-09-10T20:51:38.888Z,0.00
2022-09-10T20:52:38.892Z,0.00
2022-09-10T20:53:38.949Z,0.00
2022-09-10T20:54:39.122Z,0.00
2022-09-10T20:55:39.076Z,0.00
2022-09-10T20:56:39.135Z,0.00
2022-09-10T20:57:39.156Z,0.00
2022-09-10T20:58:39.298Z,0.00
2022-09-10T20:59:39.236Z,0.00
2022-09-10T21:00:39.301Z,0.00
2022-09-10T21:01:39.409Z,0.00
2022-09-10T21:02:39.437Z,0.00
2022-09-10T21:03:39.467Z,0.00
2022-09-10T21:04:39.525Z,0.00
2022-09-10T21:05:39.579Z,0.00
2022-09-10T21:06:39.600Z,0.00
2022-09-10T21:07:39.891Z,0.00
2022-09-10T21:08:39.771Z,0.00
2022-09-10T21:09:40.222Z,0.00
2022-09-10T21:10:39.800Z,0.00
2022-09-10T21:11:39.845Z,0.00
2022-09-10T21:12:40.921Z,0.00
2022-09-10T21:13:39.950Z,0.00
2022-09-10T21:14:40.022Z,0.00
2022-09-10T21:15:40.175Z,0.00
2022-09-10T21:16:40.093Z,0.00
2022-09-10T21:17:40.137Z,0.00
2022-09-10T21:18:40.185Z,0.00
2022-09-10T21:19:40.233Z,0.00
2022-09-10T21:20:40.315Z,0.00
2022-09-10T21:21:40.338Z,0.00
2022-09-10T21:22:40.382Z,0.00
2022-09-10T21:23:40.446Z,0.00
2022-09-10T21:24:40.504Z,0.00
2022-09-10T21:25:42.203Z,0.00
2022-09-10T21:26:40.603Z,0.00
2022-09-10T21:27:40.639Z,0.00
2022-09-10T21:28:40.777Z,0.00
2022-09-10T21:29:40.797Z,0.00
2022-09-10T21:30:40.799Z,0.00
2022-09-10T21:31:40.879Z,0.00
2022-09-10T21:32:40.898Z,0.00
2022-09-10T21:33:40.955Z,0.00
2022-09-10T21:34:41.009Z,0.00
2022-09-10T21:35:41.033Z,0.00
2022-09-10T21:36:41.394Z,0.00
2022-09-10T21:37:42.140Z,0.00
2022-09-10T21:38:41.322Z,0.00
2022-09-10T21:39:41.308Z,0.00
2022-09-10T21:40:51.180Z,0.00
2022-09-10T21:41:41.380Z,0.00
2022-09-10T21:42:41.524Z,0.00
2022-09-10T21:43:41.518Z,0.00
2022-09-10T21:44:41.935Z,0.00
2022-09-10T21:45:46.245Z,0.00
2022-09-10T21:46:41.655Z,0.00
2022-09-10T21:47:41.631Z,0.00
2022-09-10T21:48:42.412Z,0.00
2022-09-10T21:49:42.097Z,0.00
2022-09-10T21:50:53.282Z,0.00
2022-09-10T21:51:48.970Z,0.00
2022-09-10T21:55:52.084Z,0.00
2022-09-10T21:56:51.452Z,0.00
2022-09-10T21:57:53.185Z,0.00
2022-09-10T21:58:51.573Z,0.00
2022-09-10T21:59:51.675Z,0.00
2022-09-10T22:00:51.661Z,0.00
